Time;durP1;ratioP1;P1;durP2;ratioP2;P2;SDS_P1;SDS_P2;PMS_P1;PMS_P2;Temp;Humidity;BMP_temperature;BMP_pressure;BME280_temperature;BME280_humidity;BME280_pressure;Samples;Min_cycle;Max_cycle;Signal;HPM_P1;HPM_P2
2020/12/28 00:01:42;;;;;;;0.77;0.60;;;;;;;5.98;46.65;97344.97;5069617;28;20091;-71
2020/12/28 00:04:10;;;;;;;0.98;0.52;;;;;;;5.97;46.59;97340.56;5070345;28;20062;-71
2020/12/28 00:06:38;;;;;;;0.65;0.50;;;;;;;5.96;46.56;97340.75;5072231;28;20039;-71
2020/12/28 00:09:06;;;;;;;1.25;0.63;;;;;;;5.96;46.59;97340.75;5054953;28;20062;-70
2020/12/28 00:11:33;;;;;;;0.50;0.50;;;;;;;5.95;46.57;97342.59;5068815;28;20441;-70
2020/12/28 00:14:00;;;;;;;1.30;0.60;;;;;;;5.95;46.62;97350.75;5068964;28;20376;-70
2020/12/28 00:16:28;;;;;;;0.77;0.40;;;;;;;5.95;46.72;97345.31;5066530;28;20036;-70
2020/12/28 00:18:57;;;;;;;0.75;0.50;;;;;;;5.95;46.53;97341.75;5070744;28;20040;-69
2020/12/28 00:21:25;;;;;;;1.40;0.55;;;;;;;5.94;46.83;97340.94;5069997;28;20028;-70
2020/12/28 00:23:53;;;;;;;1.27;0.50;;;;;;;5.93;46.68;97332.97;5072366;28;20035;-69
2020/12/28 00:26:21;;;;;;;1.00;0.57;;;;;;;5.92;46.60;97332.13;5071015;28;20240;-69
2020/12/28 00:28:48;;;;;;;1.08;0.65;;;;;;;5.91;46.55;97338.59;5071742;28;20040;-69
2020/12/28 00:31:17;;;;;;;0.75;0.45;;;;;;;5.92;46.75;97334.84;5072403;28;20107;-69
2020/12/28 00:33:45;;;;;;;0.57;0.40;;;;;;;5.92;46.65;97336.75;5071635;28;20431;-70
2020/12/28 00:36:17;;;;;;;0.50;0.50;;;;;;;5.93;46.89;97330.25;5070465;28;20106;-70
2020/12/28 00:38:45;;;;;;;0.32;0.32;;;;;;;5.89;47.12;97340.66;5068364;28;20072;-70
2020/12/28 00:41:12;;;;;;;0.82;0.52;;;;;;;5.90;46.76;97330.66;5076710;28;20044;-69
2020/12/28 00:43:43;;;;;;;0.57;0.45;;;;;;;5.92;47.19;97325.88;5071577;28;20483;-70
2020/12/28 00:46:12;;;;;;;0.43;0.30;;;;;;;5.91;46.84;97321.50;5070178;28;20036;-70
2020/12/28 00:48:40;;;;;;;0.93;0.50;;;;;;;5.89;46.91;97320.84;5070876;28;20090;-71
2020/12/28 00:51:11;;;;;;;0.80;0.40;;;;;;;5.89;46.79;97318.13;5067948;28;20045;-71
2020/12/28 00:53:40;;;;;;;0.55;0.43;;;;;;;5.88;46.85;97322.69;5054397;28;20136;-70
2020/12/28 00:56:09;;;;;;;0.38;0.38;;;;;;;5.89;46.93;97320.84;5053631;28;20048;-71
2020/12/28 00:58:37;;;;;;;0.57;0.50;;;;;;;5.87;46.98;97321.00;5051771;28;20036;-70
2020/12/28 01:01:06;;;;;;;0.75;0.43;;;;;;;5.86;46.88;97316.63;5070174;28;20041;-70
2020/12/28 01:03:34;;;;;;;0.50;0.45;;;;;;;5.86;46.98;97326.63;5071618;28;20036;-70
2020/12/28 01:06:24;;;;;;;2.50;0.50;;;;;;;5.84;46.94;97324.09;5071663;28;20049;-71
2020/12/28 01:09:17;;;;;;;0.82;0.40;;;;;;;5.84;47.23;97326.81;5066115;28;20040;-70
2020/12/28 01:11:44;;;;;;;0.68;0.50;;;;;;;5.84;47.21;97331.41;5075813;28;20079;-70
2020/12/28 01:14:13;;;;;;;0.50;0.50;;;;;;;5.83;47.01;97330.56;5069946;28;20040;-72
2020/12/28 01:16:43;;;;;;;0.93;0.40;;;;;;;5.84;47.04;97323.28;5054043;28;20083;-72
2020/12/28 01:19:11;;;;;;;0.70;0.60;;;;;;;5.82;46.94;97322.63;5052760;28;20059;-71
2020/12/28 01:21:40;;;;;;;0.88;0.40;;;;;;;5.81;47.13;97331.78;5051342;28;20434;-70
2020/12/28 01:24:08;;;;;;;0.63;0.30;;;;;;;5.80;46.74;97330.09;5070786;28;20434;-69
2020/12/28 01:26:37;;;;;;;0.52;0.40;;;;;;;5.80;46.97;97346.38;5071327;28;20142;-69
2020/12/28 01:29:05;;;;;;;0.55;0.40;;;;;;;5.77;46.88;97347.56;5062003;28;20047;-68
2020/12/28 01:31:38;;;;;;;;;;;;;;;5.53;47.72;97345.13;5052251;28;20115;-69
2020/12/28 01:34:06;;;;;;;0.30;0.30;;;;;;;5.70;46.83;97346.66;5071549;28;19924;-69
2020/12/28 01:36:53;;;;;;;0.68;0.45;;;;;;;5.71;46.95;97340.19;5071179;28;20049;-69
2020/12/28 01:39:25;;;;;;;0.40;0.30;;;;;;;5.72;47.01;97343.75;5058498;28;20127;-69
2020/12/28 01:41:57;;;;;;;0.30;0.30;;;;;;;5.70;46.98;97335.78;5080512;28;20049;-68
2020/12/28 01:44:24;;;;;;;0.30;0.30;;;;;;;5.70;47.09;97338.50;5053231;28;20048;-69
2020/12/28 01:47:01;;;;;;;0.28;0.28;;;;;;;5.70;46.91;97337.66;5069587;28;20048;-69
2020/12/28 01:49:31;;;;;;;0.63;0.30;;;;;;;5.69;47.17;97341.41;5070361;28;20435;-69
2020/12/28 01:52:01;;;;;;;0.32;0.30;;;;;;;5.69;47.27;97342.25;5056255;28;20490;-69
2020/12/28 01:54:32;;;;;;;0.35;0.25;;;;;;;5.70;47.53;97346.66;5065541;28;20044;-69
2020/12/28 01:57:01;;;;;;;1.08;0.30;;;;;;;5.70;47.14;97346.66;5054863;28;20084;-69
2020/12/28 01:59:40;;;;;;;0.30;0.30;;;;;;;5.69;47.21;97346.81;5066027;28;20033;-69
2020/12/28 02:02:19;;;;;;;0.45;0.30;;;;;;;5.71;47.25;97355.63;5053187;28;20044;-69
2020/12/28 02:04:46;;;;;;;1.85;0.57;;;;;;;5.71;47.04;97347.50;5068221;28;20438;-69
2020/12/28 02:07:17;;;;;;;0.57;0.40;;;;;;;5.72;47.33;97350.03;5053404;28;20172;-69
2020/12/28 02:09:47;;;;;;;1.00;0.45;;;;;;;5.70;47.43;97348.50;5075514;28;20036;-69
2020/12/28 02:12:16;;;;;;;0.57;0.57;;;;;;;5.72;47.27;97344.59;5062618;28;20071;-68
2020/12/28 02:14:43;;;;;;;0.40;0.40;;;;;;;5.71;47.48;97348.34;5068271;28;20040;-69
2020/12/28 02:17:18;;;;;;;0.30;0.30;;;;;;;5.72;47.45;97349.16;5066361;28;20049;-69
2020/12/28 02:20:00;;;;;;;0.63;0.30;;;;;;;5.71;47.54;97355.63;5045828;28;20522;-68
2020/12/28 02:22:28;;;;;;;0.68;0.40;;;;;;;5.72;47.41;97352.72;5052813;28;20505;-69
2020/12/28 02:24:57;;;;;;;0.40;0.40;;;;;;;5.73;47.46;97348.16;5055245;28;20037;-68
2020/12/28 02:27:27;;;;;;;0.40;0.40;;;;;;;5.72;47.78;97350.03;5048531;28;20392;-69
2020/12/28 02:29:54;;;;;;;0.35;0.30;;;;;;;5.73;47.44;97351.69;5051556;28;20095;-69
2020/12/28 02:32:22;;;;;;;0.30;0.30;;;;;;;5.73;47.75;97356.28;5052965;28;20052;-68
2020/12/28 02:35:10;;;;;;;0.50;0.50;;;;;;;5.72;47.56;97362.72;5060482;28;20064;-68
2020/12/28 02:37:45;;;;;;;1.33;0.40;;;;;;;5.74;47.52;97363.41;5048534;28;20033;-68
2020/12/28 02:40:13;;;;;;;0.30;0.30;;;;;;;5.73;47.53;97357.13;5069400;28;20502;-68
2020/12/28 02:42:49;;;;;;;0.52;0.30;;;;;;;5.73;47.30;97364.41;5079386;28;20032;-68
2020/12/28 02:45:36;;;;;;;0.90;0.30;;;;;;;5.73;47.58;97365.25;5073764;28;20040;-68
2020/12/28 02:48:22;;;;;;;0.73;0.35;;;;;;;5.72;47.56;97357.31;5072723;28;20044;-68
2020/12/28 02:51:11;;;;;;;0.40;0.30;;;;;;;5.72;47.76;97354.59;5066141;28;20040;-68
2020/12/28 02:53:58;;;;;;;0.40;0.28;;;;;;;5.72;47.77;97362.72;5072296;28;20045;-68
2020/12/28 02:56:58;;;;;;;0.30;0.30;;;;;;;5.70;47.57;97362.06;5046531;28;20084;-68
2020/12/28 02:59:44;;;;;;;0.57;0.35;;;;;;;5.69;47.46;97361.22;5066102;28;20056;-68
2020/12/28 03:02:31;;;;;;;0.35;0.30;;;;;;;5.71;47.32;97363.75;5072203;28;20139;-68
2020/12/28 03:05:31;;;;;;;0.35;0.30;;;;;;;5.69;47.85;97363.94;5037272;28;20090;-68
2020/12/28 03:08:18;;;;;;;0.40;0.40;;;;;;;5.70;47.79;97362.06;5069565;28;20389;-68
2020/12/28 03:11:05;;;;;;;0.40;0.30;;;;;;;5.70;47.78;97357.50;5081523;28;20140;-68
2020/12/28 03:13:51;;;;;;;0.90;0.30;;;;;;;5.71;48.00;97361.03;5071182;28;20435;-68
2020/12/28 03:16:37;;;;;;;0.40;0.40;;;;;;;5.71;47.86;97359.19;5072625;28;20040;-68
2020/12/28 03:19:23;;;;;;;0.45;0.25;;;;;;;5.71;47.85;97352.91;5070883;28;20044;-68
2020/12/28 03:22:09;;;;;;;0.85;0.38;;;;;;;5.70;47.71;97353.94;5066419;28;20060;-68
2020/12/28 03:24:55;;;;;;;1.20;0.30;;;;;;;5.69;47.80;97341.41;5072870;28;20064;-68
2020/12/28 03:27:42;;;;;;;0.55;0.40;;;;;;;5.72;48.04;97346.47;5053117;28;20546;-67
2020/12/28 03:30:28;;;;;;;0.40;0.40;;;;;;;5.70;47.77;97345.81;5061219;28;20091;-68
2020/12/28 03:33:14;;;;;;;0.75;0.60;;;;;;;5.70;47.67;97346.66;5071864;28;20072;-68
2020/12/28 03:36:00;;;;;;;0.65;0.40;;;;;;;5.71;48.09;97355.63;5073455;28;20088;-67
2020/12/28 03:38:46;;;;;;;1.45;0.40;;;;;;;5.71;47.84;97369.19;5071464;28;20029;-68
2020/12/28 03:41:49;;;;;;;0.85;0.55;;;;;;;5.69;47.93;97365.81;5037874;28;20043;-68
2020/12/28 03:44:42;;;;;;;0.50;0.40;;;;;;;5.70;48.00;97379.19;5071580;28;20075;-68
2020/12/28 03:47:28;;;;;;;0.38;0.30;;;;;;;5.70;48.19;97373.75;5069976;28;20040;-68
2020/12/28 03:50:15;;;;;;;0.60;0.32;;;;;;;5.72;47.68;97379.00;5070816;28;20064;-68
2020/12/28 03:53:19;;;;;;;0.32;0.30;;;;;;;5.70;47.90;97381.91;5066197;28;20113;-68
2020/12/28 03:56:05;;;;;;;0.55;0.40;;;;;;;5.70;47.99;97378.34;5072876;28;20157;-68
2020/12/28 03:58:51;;;;;;;0.50;0.50;;;;;;;5.70;47.97;97384.59;5070103;28;20033;-68
2020/12/28 04:01:38;;;;;;;0.30;0.30;;;;;;;5.72;48.13;97381.72;5072572;28;20103;-68
2020/12/28 04:04:25;;;;;;;0.95;0.45;;;;;;;5.71;48.07;97390.88;5069465;28;20127;-68
2020/12/28 04:07:25;;;;;;;0.52;0.40;;;;;;;5.71;47.89;97389.00;5027748;28;20040;-68
2020/12/28 04:10:12;;;;;;;0.70;0.40;;;;;;;5.71;48.01;97390.88;5072683;28;20054;-68
2020/12/28 04:13:01;;;;;;;0.45;0.30;;;;;;;5.72;48.10;97393.41;5052866;28;20519;-68
2020/12/28 04:15:38;;;;;;;0.22;0.20;;;;;;;5.74;48.32;97387.81;5051166;28;20079;-68
2020/12/28 04:18:06;;;;;;;0.30;0.30;;;;;;;5.76;48.23;97392.00;5080808;28;20041;-68
2020/12/28 04:20:43;;;;;;;0.30;0.30;;;;;;;5.75;48.06;97384.06;5052568;28;20041;-68
2020/12/28 04:23:13;;;;;;;0.50;0.30;;;;;;;5.76;47.95;97391.19;5053416;28;20472;-68
2020/12/28 04:25:44;;;;;;;0.25;0.25;;;;;;;5.76;48.22;97383.84;5071400;28;20415;-68
2020/12/28 04:28:14;;;;;;;0.32;0.20;;;;;;;5.79;48.05;97385.34;5071205;28;20033;-68
2020/12/28 04:30:43;;;;;;;0.35;0.35;;;;;;;5.78;48.16;97370.13;5066282;28;20087;-68
2020/12/28 04:33:11;;;;;;;0.47;0.30;;;;;;;5.80;48.14;97371.63;5064564;28;20040;-68
2020/12/28 04:35:47;;;;;;;0.65;0.30;;;;;;;5.79;48.01;97363.66;5086330;28;20068;-68
2020/12/28 04:38:14;;;;;;;0.43;0.30;;;;;;;5.80;48.27;97362.63;5071622;28;20131;-68
2020/12/28 04:40:41;;;;;;;1.15;0.40;;;;;;;5.80;48.02;97371.63;5081071;28;20053;-68
2020/12/28 04:43:12;;;;;;;0.60;0.30;;;;;;;5.81;48.12;97370.59;5071367;28;20443;-67
2020/12/28 04:45:42;;;;;;;0.70;0.60;;;;;;;5.80;48.02;97376.19;5069357;28;20115;-68
2020/12/28 04:48:13;;;;;;;0.30;0.30;;;;;;;5.82;48.03;97375.00;5072264;28;20037;-68
2020/12/28 04:50:42;;;;;;;0.63;0.40;;;;;;;5.82;48.12;97375.00;5070448;28;20044;-67
2020/12/28 04:53:10;;;;;;;0.95;0.45;;;;;;;5.83;48.05;97378.56;5071263;28;20051;-68
2020/12/28 04:55:37;;;;;;;0.22;0.22;;;;;;;5.83;48.28;97375.84;5071392;28;20040;-68
2020/12/28 04:58:05;;;;;;;0.68;0.40;;;;;;;5.84;48.06;97364.78;5068976;28;20067;-68
2020/12/28 05:00:40;;;;;;;0.47;0.40;;;;;;;5.85;48.38;97368.34;5067449;28;20114;-67
2020/12/28 05:03:08;;;;;;;0.65;0.40;;;;;;;5.84;48.06;97361.25;5070416;28;20049;-68
2020/12/28 05:05:44;;;;;;;0.93;0.50;;;;;;;5.88;48.35;97362.53;5071395;28;20037;-68
2020/12/28 05:08:14;;;;;;;0.82;0.47;;;;;;;5.84;48.12;97364.78;5072956;28;20040;-68
2020/12/28 05:10:41;;;;;;;0.57;0.50;;;;;;;5.84;48.16;97364.78;5081603;28;20044;-68
2020/12/28 05:13:09;;;;;;;0.55;0.50;;;;;;;5.85;47.97;97371.03;5067567;28;20036;-68
2020/12/28 05:15:47;;;;;;;1.38;0.60;;;;;;;5.86;48.37;97370.03;5055062;28;20066;-67
2020/12/28 05:18:21;;;;;;;0.80;0.50;;;;;;;5.84;48.31;97369.38;5068091;28;20059;-68
2020/12/28 05:20:52;;;;;;;0.40;0.40;;;;;;;5.85;48.09;97376.47;5070622;28;20394;-68
2020/12/28 05:23:23;;;;;;;0.30;0.30;;;;;;;5.84;47.80;97372.09;5069317;28;20043;-68
2020/12/28 05:25:52;;;;;;;0.40;0.40;;;;;;;5.84;48.04;97375.63;5071218;28;20123;-68
2020/12/28 05:28:22;;;;;;;0.30;0.30;;;;;;;5.85;48.41;97371.03;5067719;28;20079;-68
2020/12/28 05:30:52;;;;;;;0.30;0.30;;;;;;;5.83;48.08;97357.69;5052879;28;20044;-68
2020/12/28 05:33:30;;;;;;;0.40;0.40;;;;;;;5.82;48.14;97358.72;5050843;28;20057;-68
2020/12/28 05:36:02;;;;;;;0.47;0.35;;;;;;;5.85;48.20;97362.91;5070654;28;20043;-68
2020/12/28 05:38:32;;;;;;;0.40;0.40;;;;;;;5.83;47.78;97356.84;5071043;28;20087;-68
2020/12/28 05:41:02;;;;;;;0.40;0.35;;;;;;;5.84;47.94;97356.63;5075431;28;20040;-68
2020/12/28 05:43:43;;;;;;;0.40;0.40;;;;;;;5.80;48.24;97371.63;5071432;28;20110;-68
2020/12/28 05:46:21;;;;;;;0.77;0.60;;;;;;;5.85;48.42;97369.19;5069910;28;20044;-68
2020/12/28 05:48:55;;;;;;;0.28;0.28;;;;;;;5.82;48.17;97376.88;5067962;28;20048;-68
2020/12/28 05:51:29;;;;;;;0.60;0.32;;;;;;;5.81;48.22;97389.59;5070959;28;20052;-68
2020/12/28 05:53:59;;;;;;;0.32;0.30;;;;;;;5.81;48.04;97384.16;5070980;28;20051;-68
2020/12/28 05:56:27;;;;;;;0.50;0.50;;;;;;;5.81;48.00;97392.28;5069149;28;20040;-68
2020/12/28 05:58:56;;;;;;;0.77;0.50;;;;;;;5.81;47.98;97392.28;5066418;28;20036;-68
2020/12/28 06:01:30;;;;;;;1.08;0.52;;;;;;;5.82;48.35;97393.13;5052793;28;20335;-68
2020/12/28 06:04:01;;;;;;;0.70;0.40;;;;;;;5.81;48.13;97392.28;5061828;28;20044;-68
2020/12/28 06:06:39;;;;;;;0.50;0.50;;;;;;;5.80;48.20;97389.75;5069047;28;20555;-68
2020/12/28 06:09:07;;;;;;;0.50;0.50;;;;;;;5.79;48.03;97391.63;5053680;28;20032;-68
2020/12/28 06:11:36;;;;;;;0.50;0.40;;;;;;;5.79;48.08;97386.19;5067348;28;20041;-68
2020/12/28 06:14:15;;;;;;;0.40;0.40;;;;;;;5.81;48.52;97388.72;5064365;28;20055;-69
2020/12/28 06:16:45;;;;;;;1.33;0.55;;;;;;;5.78;48.20;97389.94;5067051;28;20044;-68
2020/12/28 06:19:23;;;;;;;0.50;0.50;;;;;;;5.81;48.29;97391.44;5072650;28;20033;-68
2020/12/28 06:21:54;;;;;;;0.38;0.38;;;;;;;5.79;48.00;97397.06;5072392;28;20036;-69
2020/12/28 06:24:25;;;;;;;0.85;0.50;;;;;;;5.80;48.12;97395.19;5074507;28;20048;-68
2020/12/28 06:27:06;;;;;;;0.73;0.55;;;;;;;5.79;47.94;97404.34;5068016;28;20585;-68
2020/12/28 06:29:40;;;;;;;1.25;0.70;;;;;;;5.78;48.06;97397.22;5064908;28;20515;-68
2020/12/28 06:32:11;;;;;;;0.90;0.60;;;;;;;5.79;48.07;97407.91;5060954;28;20090;-68
2020/12/28 06:34:39;;;;;;;0.85;0.50;;;;;;;5.77;48.17;97401.81;5070464;28;20532;-68
2020/12/28 06:37:11;;;;;;;0.88;0.57;;;;;;;5.78;47.78;97395.38;5072028;28;20388;-68
2020/12/28 06:39:41;;;;;;;1.70;0.70;;;;;;;5.77;47.80;97396.38;5047984;28;20120;-68
2020/12/28 06:42:10;;;;;;;1.85;0.77;;;;;;;5.78;47.86;97405.38;5075216;28;20128;-68
2020/12/28 06:44:43;;;;;;;1.40;0.70;;;;;;;5.76;47.69;97404.75;5073372;28;20037;-68
2020/12/28 06:47:17;;;;;;;1.00;0.68;;;;;;;5.79;47.80;97409.78;5078722;28;20095;-68
2020/12/28 06:49:48;;;;;;;1.83;0.70;;;;;;;5.76;47.80;97407.44;5071064;28;20132;-68
2020/12/28 06:52:17;;;;;;;2.25;0.60;;;;;;;5.76;47.79;97410.97;5054778;28;20044;-68
2020/12/28 06:54:49;;;;;;;1.02;0.60;;;;;;;5.75;47.67;97412.03;5072718;28;20387;-68
2020/12/28 06:57:17;;;;;;;0.75;0.50;;;;;;;5.76;47.57;97412.88;5072380;28;20042;-68
2020/12/28 06:59:52;;;;;;;0.90;0.60;;;;;;;5.75;47.98;97420.16;5070567;28;20037;-68
2020/12/28 07:02:29;;;;;;;1.67;0.70;;;;;;;5.75;47.90;97427.47;5070886;28;20060;-68
2020/12/28 07:05:04;;;;;;;1.50;0.80;;;;;;;5.73;47.91;97422.22;5071637;28;20040;-68
2020/12/28 07:07:41;;;;;;;1.92;0.68;;;;;;;5.75;47.86;97431.00;5073989;28;20048;-68
2020/12/28 07:10:19;;;;;;;1.35;0.57;;;;;;;5.75;47.82;97435.59;5069875;28;20046;-69
2020/12/28 07:12:50;;;;;;;1.10;0.63;;;;;;;5.74;47.65;97425.78;5074025;28;20051;-68
2020/12/28 07:15:19;;;;;;;0.85;0.60;;;;;;;5.73;47.78;97435.78;5067729;28;20068;-67
2020/12/28 07:17:46;;;;;;;0.88;0.60;;;;;;;5.72;47.89;97427.81;5074244;28;20029;-68
2020/12/28 07:20:14;;;;;;;1.42;0.80;;;;;;;5.72;47.85;97428.66;5070442;28;20083;-68
2020/12/28 07:22:44;;;;;;;1.25;0.70;;;;;;;5.74;47.95;97433.91;5072259;28;20068;-68
2020/12/28 07:25:13;;;;;;;1.70;0.77;;;;;;;5.72;47.98;97434.09;5051277;28;20422;-68
2020/12/28 07:27:42;;;;;;;2.20;0.70;;;;;;;5.72;47.99;97430.53;5063525;28;20682;-68
2020/12/28 07:30:14;;;;;;;;;;;;;;;5.49;48.56;97438.72;5055938;28;20068;-68
2020/12/28 07:32:57;;;;;;;1.98;0.80;;;;;;;5.68;48.24;97449.03;5069397;28;20295;-69
2020/12/28 07:35:28;;;;;;;2.20;0.95;;;;;;;5.70;48.19;97446.13;5063774;28;20419;-68
2020/12/28 07:37:58;;;;;;;1.30;0.80;;;;;;;5.72;47.93;97455.78;5073943;28;20039;-68
2020/12/28 07:40:34;;;;;;;1.58;0.98;;;;;;;5.71;47.75;97455.97;5067309;28;20124;-68
2020/12/28 07:43:08;;;;;;;2.33;0.90;;;;;;;5.74;48.19;97455.59;5076220;28;20043;-69
2020/12/28 07:45:41;;;;;;;2.67;1.20;;;;;;;5.70;47.67;97459.69;5057120;28;20056;-69
2020/12/28 07:48:17;;;;;;;3.28;1.23;;;;;;;5.70;47.97;97454.28;5062723;28;20123;-69
2020/12/28 07:50:46;;;;;;;2.00;1.10;;;;;;;5.70;47.83;97451.56;5059837;28;20067;-69
2020/12/28 07:53:20;;;;;;;1.73;0.90;;;;;;;5.72;47.70;97453.06;5049947;28;20045;-69
2020/12/28 07:55:52;;;;;;;1.33;0.77;;;;;;;5.70;47.68;97444.25;5071024;28;20070;-69
2020/12/28 07:58:44;;;;;;;1.73;0.80;;;;;;;5.72;47.76;97438.66;5063862;28;20032;-69
2020/12/28 08:01:20;;;;;;;1.88;0.90;;;;;;;5.69;47.59;97436.31;5051206;28;20044;-69
2020/12/28 08:03:55;;;;;;;1.02;0.80;;;;;;;5.68;47.63;97432.75;5073090;28;20544;-69
2020/12/28 08:06:27;;;;;;;0.80;0.68;;;;;;;5.66;47.89;97444.84;5065309;28;20032;-70
2020/12/28 08:09:05;;;;;;;1.73;0.82;;;;;;;5.68;47.92;97445.50;5072275;28;20051;-69
2020/12/28 08:11:42;;;;;;;1.58;0.80;;;;;;;5.64;47.65;97444.16;5074554;28;20534;-69
2020/12/28 08:14:11;;;;;;;1.40;0.82;;;;;;;5.64;47.47;97447.72;5063374;28;20095;-68
2020/12/28 08:16:39;;;;;;;2.45;0.90;;;;;;;5.61;47.61;97442.66;5067277;28;20033;-68
2020/12/28 08:19:08;;;;;;;1.45;1.10;;;;;;;5.62;47.75;97446.22;5070191;28;20380;-69
2020/12/28 08:21:41;;;;;;;2.50;1.02;;;;;;;5.60;47.65;97444.53;5070503;28;20040;-68
2020/12/28 08:24:18;;;;;;;1.40;0.90;;;;;;;5.62;47.91;97440.78;5068118;28;20048;-68
2020/12/28 08:26:46;;;;;;;1.52;0.90;;;;;;;5.58;47.66;97443.88;5051889;28;20119;-69
2020/12/28 08:29:16;;;;;;;1.45;0.90;;;;;;;5.59;47.76;97439.31;5062907;28;20487;-68
2020/12/28 08:31:45;;;;;;;2.53;1.10;;;;;;;5.57;47.72;97436.78;5068740;28;20158;-68
2020/12/28 08:34:17;;;;;;;1.73;1.10;;;;;;;5.55;47.89;97446.97;5072985;28;20387;-69
2020/12/28 08:36:53;;;;;;;1.83;0.93;;;;;;;5.58;47.64;97462.03;5071160;28;20503;-68
2020/12/28 08:39:25;;;;;;;1.48;1.00;;;;;;;5.56;47.52;97473.03;5058799;28;20525;-68
2020/12/28 08:41:57;;;;;;;1.60;1.00;;;;;;;5.54;47.57;97488.66;5081997;28;20123;-68
2020/12/28 08:44:26;;;;;;;3.05;1.38;;;;;;;5.54;47.43;97482.38;5070613;28;20098;-67
2020/12/28 08:47:03;;;;;;;1.20;0.98;;;;;;;5.52;47.59;97481.72;5074896;28;20045;-69
2020/12/28 08:49:33;;;;;;;2.20;0.95;;;;;;;5.51;47.53;97489.00;5069861;28;20036;-68
2020/12/28 08:52:09;;;;;;;1.85;1.00;;;;;;;5.51;47.84;97486.28;5058144;28;20044;-68
2020/12/28 08:54:51;;;;;;;1.35;0.90;;;;;;;5.50;47.65;97489.22;5060515;28;20114;-68
2020/12/28 08:57:38;;;;;;;2.15;1.00;;;;;;;5.47;47.79;97481.41;5076797;28;20040;-68
2020/12/28 09:00:27;;;;;;;1.83;0.80;;;;;;;5.48;47.70;97485.81;5059663;28;20053;-68
2020/12/28 09:03:10;;;;;;;1.17;0.70;;;;;;;5.50;47.69;97490.06;5042640;28;20044;-68
2020/12/28 09:05:45;;;;;;;1.67;0.95;;;;;;;5.50;47.63;97489.22;5069091;28;20032;-68
2020/12/28 09:08:20;;;;;;;2.47;0.90;;;;;;;5.51;47.70;97486.28;5070502;28;20031;-68
2020/12/28 09:10:55;;;;;;;1.75;0.80;;;;;;;5.54;47.44;97495.94;5068568;28;20035;-66
2020/12/28 09:13:24;;;;;;;1.90;1.13;;;;;;;5.53;47.84;97497.81;5068132;28;20028;-68
2020/12/28 09:15:53;;;;;;;2.38;1.00;;;;;;;5.55;47.50;97500.34;5066402;28;20033;-68
2020/12/28 09:18:31;;;;;;;1.20;0.90;;;;;;;5.54;47.49;97491.34;5063970;28;20119;-68
2020/12/28 09:20:58;;;;;;;2.85;1.05;;;;;;;5.55;47.44;97495.75;5070078;28;20036;-68
2020/12/28 09:23:33;;;;;;;1.90;1.00;;;;;;;5.56;47.57;97491.19;5068340;28;20043;-70
2020/12/28 09:26:02;;;;;;;1.80;0.90;;;;;;;5.58;47.77;97487.28;5049679;28;20047;-70
2020/12/28 09:28:34;;;;;;;2.47;1.27;;;;;;;5.59;47.98;97482.69;5068773;28;20043;-68
2020/12/28 09:31:03;;;;;;;2.15;1.00;;;;;;;5.62;48.11;97479.59;5068386;28;20040;-68
2020/12/28 09:33:32;;;;;;;2.60;0.85;;;;;;;5.67;47.86;97479.91;5052977;28;20036;-68
2020/12/28 09:36:05;;;;;;;2.28;1.02;;;;;;;5.70;48.05;97467.81;5067883;28;20048;-68
2020/12/28 09:38:38;;;;;;;2.05;1.00;;;;;;;5.72;48.17;97463.91;5065221;28;20036;-68
2020/12/28 09:41:07;;;;;;;1.60;0.90;;;;;;;5.78;48.14;97463.16;5047140;28;20458;-68
2020/12/28 09:43:40;;;;;;;1.30;0.80;;;;;;;5.82;47.72;97469.06;5071580;28;20036;-68
2020/12/28 09:46:08;;;;;;;1.08;0.80;;;;;;;5.84;47.92;97472.47;5052268;28;20060;-68
2020/12/28 09:48:40;;;;;;;1.70;0.80;;;;;;;5.87;47.64;97464.78;5070136;28;20037;-68
2020/12/28 09:51:20;;;;;;;1.27;0.85;;;;;;;5.90;47.67;97469.84;5053410;28;20522;-68
2020/12/28 09:53:49;;;;;;;2.00;0.90;;;;;;;5.93;47.79;97460.47;5072111;28;20040;-68
2020/12/28 09:56:28;;;;;;;1.23;0.93;;;;;;;5.96;47.36;97462.81;5076213;28;20119;-68
2020/12/28 09:58:59;;;;;;;1.88;1.00;;;;;;;5.97;47.49;97470.78;5082019;28;20063;-68
2020/12/28 10:01:26;;;;;;;1.92;1.00;;;;;;;6.00;47.23;97468.72;5068874;28;20040;-68
2020/12/28 10:03:54;;;;;;;2.55;1.00;;;;;;;5.98;47.19;97468.91;5070819;28;20040;-68
2020/12/28 10:06:34;;;;;;;1.13;0.80;;;;;;;6.00;47.10;97472.28;5072081;28;20079;-68
2020/12/28 10:09:05;;;;;;;3.25;1.10;;;;;;;6.00;46.83;97482.28;5079249;28;20467;-68
2020/12/28 10:11:38;;;;;;;1.08;0.77;;;;;;;5.99;47.02;97492.31;5075894;28;20043;-68
2020/12/28 10:14:07;;;;;;;2.05;0.88;;;;;;;5.97;46.92;97489.78;5068803;28;20094;-68
2020/12/28 10:16:37;;;;;;;1.77;0.77;;;;;;;5.97;46.59;97495.19;5074196;28;20040;-68
2020/12/28 10:19:05;;;;;;;1.75;0.90;;;;;;;5.97;46.91;97483.50;5075006;28;20043;-68
2020/12/28 10:21:35;;;;;;;1.58;0.90;;;;;;;5.95;46.70;97485.53;5074334;28;20159;-68
2020/12/28 10:24:04;;;;;;;2.10;0.80;;;;;;;5.93;46.68;97484.88;5040509;28;20052;-68
2020/12/28 10:26:34;;;;;;;1.63;0.73;;;;;;;5.92;46.70;97481.31;5034180;28;20048;-68
2020/12/28 10:29:05;;;;;;;1.20;0.80;;;;;;;5.91;46.53;97473.41;5072371;28;20033;-68
2020/12/28 10:31:34;;;;;;;1.75;0.80;;;;;;;5.88;46.64;97457.47;5082422;28;20032;-67
2020/12/28 10:34:02;;;;;;;1.88;0.80;;;;;;;5.86;46.62;97454.94;5068023;28;20047;-68
2020/12/28 10:36:29;;;;;;;2.65;0.85;;;;;;;5.85;46.67;97455.97;5073236;28;20043;-68
2020/12/28 10:39:00;;;;;;;1.23;0.77;;;;;;;5.85;46.58;97447.84;5051353;28;20163;-67
2020/12/28 10:41:30;;;;;;;1.67;0.90;;;;;;;5.86;46.77;97457.66;5072591;28;20107;-68
2020/12/28 10:43:58;;;;;;;1.70;0.80;;;;;;;5.85;46.57;97453.25;5072890;28;20556;-68
2020/12/28 10:46:27;;;;;;;1.77;0.80;;;;;;;5.87;46.75;97463.94;5073415;28;20098;-68
2020/12/28 10:48:56;;;;;;;1.67;0.93;;;;;;;5.84;46.76;97456.19;5072457;28;20434;-69
2020/12/28 10:51:27;;;;;;;2.10;0.85;;;;;;;5.85;46.63;97452.41;5067940;28;20036;-68
2020/12/28 10:53:54;;;;;;;1.75;0.90;;;;;;;5.84;46.67;97451.56;5053403;28;20423;-68
2020/12/28 10:56:25;;;;;;;2.25;0.82;;;;;;;5.85;46.78;97464.09;5073142;28;20036;-68
2020/12/28 10:58:55;;;;;;;1.05;0.88;;;;;;;5.85;46.60;97477.66;5069187;28;20391;-68
2020/12/28 11:01:33;;;;;;;1.80;0.82;;;;;;;5.85;46.74;97472.25;5070588;28;20040;-68
2020/12/28 11:04:01;;;;;;;1.38;0.80;;;;;;;5.83;46.60;97466.19;5070793;28;20094;-68
2020/12/28 11:06:29;;;;;;;2.30;0.70;;;;;;;5.85;46.73;97464.09;5073193;28;20048;-68
2020/12/28 11:09:00;;;;;;;1.55;0.90;;;;;;;5.84;46.88;97462.41;5068754;28;20036;-68
2020/12/28 11:11:30;;;;;;;1.98;1.00;;;;;;;5.86;46.74;97473.94;5068233;28;20448;-68
2020/12/28 11:14:05;;;;;;;2.22;1.00;;;;;;;5.85;46.66;97477.66;5031151;28;20044;-68
2020/12/28 11:16:39;;;;;;;2.05;0.80;;;;;;;5.86;46.59;97473.94;5061671;28;20039;-68
2020/12/28 11:19:14;;;;;;;1.83;1.10;;;;;;;5.86;46.46;97470.38;5053440;28;20447;-68
2020/12/28 11:21:44;;;;;;;1.85;0.93;;;;;;;5.86;46.52;97473.94;5063217;28;20404;-67
2020/12/28 11:24:13;;;;;;;1.92;0.93;;;;;;;5.85;46.90;97469.53;5058733;28;20045;-67
2020/12/28 11:26:45;;;;;;;2.47;1.00;;;;;;;5.85;46.89;97471.41;5071105;28;20028;-67
2020/12/28 11:29:14;;;;;;;2.47;1.00;;;;;;;5.86;46.63;97454.94;5056442;28;20388;-68
2020/12/28 11:31:48;;;;;;;2.38;1.00;;;;;;;5.87;46.80;97462.06;5056937;28;20051;-67
2020/12/28 11:34:15;;;;;;;2.17;1.00;;;;;;;5.87;46.69;97448.50;5075111;28;20040;-68
2020/12/28 11:36:43;;;;;;;1.40;1.00;;;;;;;5.87;46.94;97451.22;5053947;28;20439;-69
2020/12/28 11:39:20;;;;;;;1.85;0.80;;;;;;;5.88;46.71;97442.06;5079607;28;20043;-67
2020/12/28 11:41:49;;;;;;;1.60;0.90;;;;;;;5.90;46.76;97439.16;5072771;28;20411;-67
2020/12/28 11:44:18;;;;;;;1.42;0.80;;;;;;;5.91;46.61;97433.56;5074321;28;20045;-67
2020/12/28 11:46:53;;;;;;;1.40;0.70;;;;;;;5.92;46.75;97428.97;5050789;28;20127;-67
2020/12/28 11:49:31;;;;;;;1.25;0.80;;;;;;;5.92;46.77;97424.34;5069004;28;20475;-67
2020/12/28 11:52:05;;;;;;;1.55;0.77;;;;;;;5.96;47.06;97416.69;5056378;28;20041;-67
2020/12/28 11:54:34;;;;;;;1.70;0.90;;;;;;;5.98;46.85;97404.66;5073694;28;20038;-66
2020/12/28 11:57:02;;;;;;;1.95;0.70;;;;;;;6.03;46.69;97401.34;5072904;28;20044;-67
2020/12/28 11:59:30;;;;;;;1.70;0.73;;;;;;;6.07;46.73;97396.41;5082650;28;20116;-66
2020/12/28 12:01:59;;;;;;;1.23;0.60;;;;;;;6.11;46.68;97397.69;5084918;28;20038;-66
2020/12/28 12:07:14;;;;;;;2.35;0.70;;;;;;;6.16;46.61;97390.69;5053600;28;20093;-66
2020/12/28 12:09:44;;;;;;;1.60;0.68;;;;;;;6.18;46.41;97394.03;5066606;28;20109;-66
2020/12/28 12:12:16;;;;;;;2.05;0.85;;;;;;;6.22;46.39;97386.38;5074050;28;20123;-66
2020/12/28 12:14:44;;;;;;;1.58;0.82;;;;;;;6.25;46.16;97389.53;5053567;28;20091;-66